Vermillion Estates, Illinois
Current Conditions -  °F | °C
As of 6:35 AM on Sunday 23 Nov 2014 (Local Time) from KPNT Reporting Station
Overcast Overcast  
Wind Chill: 42°   Ceiling: 7500
Heat Index: 48°   Visibility: 10mi
Dew Point: 44°   Wind: 20mph
Humidity: 84%   Direction: 170°S
Pressure: 29.77"   Gusts: NA
Location:  40.8602°N, 88.6284°W
Report Text: KPNT 231235Z AUTO 17017KT 10SM SCT065 OVC075 09/07 A2977 RMK AO2 T00910065
Loading
Personal Weather Stations






























Interactive Weather Map New forecast layout! Learn more

10-Day Weather Forecast

Advertisements
Track Severe Weather on mobile